sensor_id;sensor_type;location;lat;lon;timestamp;temperature;humidity
3330;DHT22;1677;49.576;10.990;2022-09-03T00:07:33;17.00;65.20
3330;DHT22;1677;49.576;10.990;2022-09-03T00:10:04;16.90;65.20
3330;DHT22;1677;49.576;10.990;2022-09-03T00:12:36;16.90;65.60
3330;DHT22;1677;49.576;10.990;2022-09-03T00:15:10;17.20;64.70
3330;DHT22;1677;49.576;10.990;2022-09-03T00:17:43;17.60;63.20
3330;DHT22;1677;49.576;10.990;2022-09-03T00:20:38;18.00;61.10
3330;DHT22;1677;49.576;10.990;2022-09-03T00:23:07;18.30;60.80
3330;DHT22;1677;49.576;10.990;2022-09-03T00:25:54;18.40;59.60
3330;DHT22;1677;49.576;10.990;2022-09-03T00:28:26;18.30;60.10
3330;DHT22;1677;49.576;10.990;2022-09-03T00:31:17;18.10;60.70
3330;DHT22;1677;49.576;10.990;2022-09-03T00:33:45;17.90;62.00
3330;DHT22;1677;49.576;10.990;2022-09-03T00:36:19;17.60;63.20
3330;DHT22;1677;49.576;10.990;2022-09-03T00:38:45;17.30;64.40
3330;DHT22;1677;49.576;10.990;2022-09-03T00:41:35;17.10;65.30
3330;DHT22;1677;49.576;10.990;2022-09-03T00:44:13;17.00;65.80
3330;DHT22;1677;49.576;10.990;2022-09-03T00:55:45;16.50;70.10
3330;DHT22;1677;49.576;10.990;2022-09-03T00:58:24;16.30;70.80
3330;DHT22;1677;49.576;10.990;2022-09-03T01:00:54;16.30;71.20
3330;DHT22;1677;49.576;10.990;2022-09-03T01:06:27;16.20;72.70
3330;DHT22;1677;49.576;10.990;2022-09-03T01:09:29;16.40;72.70
3330;DHT22;1677;49.576;10.990;2022-09-03T01:12:06;16.80;71.00
3330;DHT22;1677;49.576;10.990;2022-09-03T01:34:15;16.50;71.10
3330;DHT22;1677;49.576;10.990;2022-09-03T01:36:49;16.50;71.90
3330;DHT22;1677;49.576;10.990;2022-09-03T01:45:21;16.00;74.40
3330;DHT22;1677;49.576;10.990;2022-09-03T01:56:13;15.70;76.90
3330;DHT22;1677;49.576;10.990;2022-09-03T01:58:48;15.70;77.00
3330;DHT22;1677;49.576;10.990;2022-09-03T02:01:25;15.60;77.50
3330;DHT22;1677;49.576;10.990;2022-09-03T02:03:53;15.60;78.40
3330;DHT22;1677;49.576;10.990;2022-09-03T02:06:25;15.80;78.40
3330;DHT22;1677;49.576;10.990;2022-09-03T02:08:51;16.20;76.40
3330;DHT22;1677;49.576;10.990;2022-09-03T02:11:17;16.60;74.20
3330;DHT22;1677;49.576;10.990;2022-09-03T02:13:53;16.90;73.20
3330;DHT22;1677;49.576;10.990;2022-09-03T02:16:22;16.90;72.00
3330;DHT22;1677;49.576;10.990;2022-09-03T02:19:03;16.90;72.40
3330;DHT22;1677;49.576;10.990;2022-09-03T02:21:38;16.80;72.60
3330;DHT22;1677;49.576;10.990;2022-09-03T02:24:05;16.70;73.30
3330;DHT22;1677;49.576;10.990;2022-09-03T02:26:32;16.50;74.50
3330;DHT22;1677;49.576;10.990;2022-09-03T02:28:58;16.30;75.20
3330;DHT22;1677;49.576;10.990;2022-09-03T02:31:25;16.00;77.00
3330;DHT22;1677;49.576;10.990;2022-09-03T02:33:54;15.90;77.50
3330;DHT22;1677;49.576;10.990;2022-09-03T02:36:24;15.70;77.50
3330;DHT22;1677;49.576;10.990;2022-09-03T02:38:51;15.60;78.30
3330;DHT22;1677;49.576;10.990;2022-09-03T02:41:17;15.50;78.90
3330;DHT22;1677;49.576;10.990;2022-09-03T02:43:49;15.40;79.50
3330;DHT22;1677;49.576;10.990;2022-09-03T02:46:20;15.40;80.70
3330;DHT22;1677;49.576;10.990;2022-09-03T02:48:46;15.30;80.60
3330;DHT22;1677;49.576;10.990;2022-09-03T02:51:11;15.30;80.50
3330;DHT22;1677;49.576;10.990;2022-09-03T02:53:37;15.30;81.00
3330;DHT22;1677;49.576;10.990;2022-09-03T02:56:03;15.20;81.30
3330;DHT22;1677;49.576;10.990;2022-09-03T02:58:29;15.20;82.90
3330;DHT22;1677;49.576;10.990;2022-09-03T03:00:58;15.10;83.80
3330;DHT22;1677;49.576;10.990;2022-09-03T03:03:24;15.10;83.60
3330;DHT22;1677;49.576;10.990;2022-09-03T03:05:51;15.40;83.60
3330;DHT22;1677;49.576;10.990;2022-09-03T03:08:18;15.80;82.90
3330;DHT22;1677;49.576;10.990;2022-09-03T03:10:46;16.20;81.40
3330;DHT22;1677;49.576;10.990;2022-09-03T03:13:12;16.40;80.10
3330;DHT22;1677;49.576;10.990;2022-09-03T03:15:39;16.50;79.40
3330;DHT22;1677;49.576;10.990;2022-09-03T03:18:04;16.40;80.20
3330;DHT22;1677;49.576;10.990;2022-09-03T03:20:32;16.20;81.40
3330;DHT22;1677;49.576;10.990;2022-09-03T03:22:57;16.10;81.40
3330;DHT22;1677;49.576;10.990;2022-09-03T03:25:25;15.80;82.80
3330;DHT22;1677;49.576;10.990;2022-09-03T03:27:54;15.60;83.80
3330;DHT22;1677;49.576;10.990;2022-09-03T03:30:21;15.40;85.30
3330;DHT22;1677;49.576;10.990;2022-09-03T03:32:47;15.30;86.40
3330;DHT22;1677;49.576;10.990;2022-09-03T03:35:13;15.20;87.00
3330;DHT22;1677;49.576;10.990;2022-09-03T03:37:39;15.10;88.40
3330;DHT22;1677;49.576;10.990;2022-09-03T03:40:05;15.00;88.80
3330;DHT22;1677;49.576;10.990;2022-09-03T03:42:34;14.90;89.10
3330;DHT22;1677;49.576;10.990;2022-09-03T03:45:00;14.70;90.40
3330;DHT22;1677;49.576;10.990;2022-09-03T03:47:27;14.70;90.40
3330;DHT22;1677;49.576;10.990;2022-09-03T03:49:55;14.70;91.20
3330;DHT22;1677;49.576;10.990;2022-09-03T03:52:21;14.50;91.40
3330;DHT22;1677;49.576;10.990;2022-09-03T03:54:47;14.50;91.40
3330;DHT22;1677;49.576;10.990;2022-09-03T03:57:14;14.50;91.90
3330;DHT22;1677;49.576;10.990;2022-09-03T03:59:40;14.50;92.20
3330;DHT22;1677;49.576;10.990;2022-09-03T04:02:06;14.60;92.10
3330;DHT22;1677;49.576;10.990;2022-09-03T04:04:31;15.10;91.30
3330;DHT22;1677;49.576;10.990;2022-09-03T04:06:57;15.50;90.40
3330;DHT22;1677;49.576;10.990;2022-09-03T04:09:22;15.80;89.90
3330;DHT22;1677;49.576;10.990;2022-09-03T04:11:48;16.00;88.90
3330;DHT22;1677;49.576;10.990;2022-09-03T04:14:15;15.90;88.80
3330;DHT22;1677;49.576;10.990;2022-09-03T04:16:42;15.70;89.50
3330;DHT22;1677;49.576;10.990;2022-09-03T04:19:11;15.50;90.00
3330;DHT22;1677;49.576;10.990;2022-09-03T04:21:37;15.30;90.60
3330;DHT22;1677;49.576;10.990;2022-09-03T04:24:04;15.10;91.20
3330;DHT22;1677;49.576;10.990;2022-09-03T04:26:31;14.90;91.20
3330;DHT22;1677;49.576;10.990;2022-09-03T04:29:03;14.80;91.50
3330;DHT22;1677;49.576;10.990;2022-09-03T04:31:29;14.70;91.40
3330;DHT22;1677;49.576;10.990;2022-09-03T04:33:55;14.60;91.70
3330;DHT22;1677;49.576;10.990;2022-09-03T04:36:24;14.40;92.00
3330;DHT22;1677;49.576;10.990;2022-09-03T04:38:52;14.40;92.20
3330;DHT22;1677;49.576;10.990;2022-09-03T04:41:27;14.40;91.80
3330;DHT22;1677;49.576;10.990;2022-09-03T04:43:54;14.30;92.00
3330;DHT22;1677;49.576;10.990;2022-09-03T04:46:21;14.30;92.10
3330;DHT22;1677;49.576;10.990;2022-09-03T04:48:49;14.30;91.80
3330;DHT22;1677;49.576;10.990;2022-09-03T04:51:18;14.30;91.90
3330;DHT22;1677;49.576;10.990;2022-09-03T04:53:46;14.20;91.70
3330;DHT22;1677;49.576;10.990;2022-09-03T04:56:19;14.20;91.80
3330;DHT22;1677;49.576;10.990;2022-09-03T04:58:46;14.20;92.00
3330;DHT22;1677;49.576;10.990;2022-09-03T05:01:20;14.50;91.50
3330;DHT22;1677;49.576;10.990;2022-09-03T05:03:46;15.00;90.50
3330;DHT22;1677;49.576;10.990;2022-09-03T05:06:13;15.40;89.70
3330;DHT22;1677;49.576;10.990;2022-09-03T05:08:39;15.70;87.50
3330;DHT22;1677;49.576;10.990;2022-09-03T05:11:06;15.80;86.60
3330;DHT22;1677;49.576;10.990;2022-09-03T05:13:33;15.80;86.30
3330;DHT22;1677;49.576;10.990;2022-09-03T05:16:01;15.70;86.70
3330;DHT22;1677;49.576;10.990;2022-09-03T05:18:28;15.40;88.30
3330;DHT22;1677;49.576;10.990;2022-09-03T05:21:00;15.20;88.90
3330;DHT22;1677;49.576;10.990;2022-09-03T05:23:27;15.00;90.00
3330;DHT22;1677;49.576;10.990;2022-09-03T05:25:58;14.90;90.20
3330;DHT22;1677;49.576;10.990;2022-09-03T05:28:28;14.80;90.40
3330;DHT22;1677;49.576;10.990;2022-09-03T05:31:02;14.70;90.80
3330;DHT22;1677;49.576;10.990;2022-09-03T05:33:28;14.60;91.10
3330;DHT22;1677;49.576;10.990;2022-09-03T05:35:59;14.60;91.30
3330;DHT22;1677;49.576;10.990;2022-09-03T05:38:25;14.50;91.50
3330;DHT22;1677;49.576;10.990;2022-09-03T05:40:50;14.50;92.20
3330;DHT22;1677;49.576;10.990;2022-09-03T05:43:16;14.50;92.40
3330;DHT22;1677;49.576;10.990;2022-09-03T05:45:42;14.60;92.20
3330;DHT22;1677;49.576;10.990;2022-09-03T05:48:07;14.60;92.40
3330;DHT22;1677;49.576;10.990;2022-09-03T05:50:33;14.50;92.70
3330;DHT22;1677;49.576;10.990;2022-09-03T05:52:59;14.50;92.50
3330;DHT22;1677;49.576;10.990;2022-09-03T05:55:24;14.50;92.70
3330;DHT22;1677;49.576;10.990;2022-09-03T05:57:53;14.80;92.30
3330;DHT22;1677;49.576;10.990;2022-09-03T06:00:19;15.20;91.50
3330;DHT22;1677;49.576;10.990;2022-09-03T06:02:51;15.70;90.70
3330;DHT22;1677;49.576;10.990;2022-09-03T06:05:18;16.10;89.40
3330;DHT22;1677;49.576;10.990;2022-09-03T06:07:44;16.40;87.20
3330;DHT22;1677;49.576;10.990;2022-09-03T06:10:13;16.50;86.30
3330;DHT22;1677;49.576;10.990;2022-09-03T06:12:41;16.40;86.10
3330;DHT22;1677;49.576;10.990;2022-09-03T06:15:07;16.10;86.70
3330;DHT22;1677;49.576;10.990;2022-09-03T06:17:33;15.90;88.60
3330;DHT22;1677;49.576;10.990;2022-09-03T06:19:59;15.80;89.00
3330;DHT22;1677;49.576;10.990;2022-09-03T06:22:24;15.70;89.20
3330;DHT22;1677;49.576;10.990;2022-09-03T06:24:52;15.60;89.20
3330;DHT22;1677;49.576;10.990;2022-09-03T06:27:18;15.50;90.00
3330;DHT22;1677;49.576;10.990;2022-09-03T06:29:45;15.50;90.20
3330;DHT22;1677;49.576;10.990;2022-09-03T06:32:11;15.40;90.50
3330;DHT22;1677;49.576;10.990;2022-09-03T06:34:36;15.30;90.60
3330;DHT22;1677;49.576;10.990;2022-09-03T06:37:02;15.30;90.80
3330;DHT22;1677;49.576;10.990;2022-09-03T06:39:28;15.40;90.50
3330;DHT22;1677;49.576;10.990;2022-09-03T06:41:53;15.40;90.40
3330;DHT22;1677;49.576;10.990;2022-09-03T06:44:19;15.50;90.40
3330;DHT22;1677;49.576;10.990;2022-09-03T06:46:45;15.50;90.50
3330;DHT22;1677;49.576;10.990;2022-09-03T06:49:11;15.50;90.30
3330;DHT22;1677;49.576;10.990;2022-09-03T06:51:38;15.50;90.30
3330;DHT22;1677;49.576;10.990;2022-09-03T06:54:08;15.70;89.90
3330;DHT22;1677;49.576;10.990;2022-09-03T06:56:37;16.00;88.90
3330;DHT22;1677;49.576;10.990;2022-09-03T06:59:05;16.60;86.40
3330;DHT22;1677;49.576;10.990;2022-09-03T07:01:32;16.90;84.70
3330;DHT22;1677;49.576;10.990;2022-09-03T07:04:00;17.10;84.20
3330;DHT22;1677;49.576;10.990;2022-09-03T07:06:31;17.30;83.00
3330;DHT22;1677;49.576;10.990;2022-09-03T07:08:57;17.20;82.90
3330;DHT22;1677;49.576;10.990;2022-09-03T07:11:27;17.40;83.30
3330;DHT22;1677;49.576;10.990;2022-09-03T07:13:53;17.40;81.90
3330;DHT22;1677;49.576;10.990;2022-09-03T07:16:34;17.10;82.80
3330;DHT22;1677;49.576;10.990;2022-09-03T07:19:00;17.00;83.40
3330;DHT22;1677;49.576;10.990;2022-09-03T07:21:28;16.90;83.50
3330;DHT22;1677;49.576;10.990;2022-09-03T07:23:55;16.80;84.60
3330;DHT22;1677;49.576;10.990;2022-09-03T07:26:27;16.80;85.60
3330;DHT22;1677;49.576;10.990;2022-09-03T07:28:53;16.80;84.70
3330;DHT22;1677;49.576;10.990;2022-09-03T07:31:33;16.90;83.80
3330;DHT22;1677;49.576;10.990;2022-09-03T07:34:02;16.90;83.80
3330;DHT22;1677;49.576;10.990;2022-09-03T07:36:30;16.90;83.60
3330;DHT22;1677;49.576;10.990;2022-09-03T07:38:59;16.90;83.20
3330;DHT22;1677;49.576;10.990;2022-09-03T07:41:26;16.90;83.50
3330;DHT22;1677;49.576;10.990;2022-09-03T07:43:52;16.90;84.00
3330;DHT22;1677;49.576;10.990;2022-09-03T07:46:23;16.90;84.70
3330;DHT22;1677;49.576;10.990;2022-09-03T07:48:50;17.00;84.70
3330;DHT22;1677;49.576;10.990;2022-09-03T07:51:20;17.50;82.70
3330;DHT22;1677;49.576;10.990;2022-09-03T07:53:47;18.00;79.80
3330;DHT22;1677;49.576;10.990;2022-09-03T07:56:13;18.20;79.50
3330;DHT22;1677;49.576;10.990;2022-09-03T07:58:40;18.70;78.20
3330;DHT22;1677;49.576;10.990;2022-09-03T08:01:09;19.10;75.30
3330;DHT22;1677;49.576;10.990;2022-09-03T08:03:35;19.20;74.80
3330;DHT22;1677;49.576;10.990;2022-09-03T08:06:03;19.10;73.60
3330;DHT22;1677;49.576;10.990;2022-09-03T08:08:29;18.90;75.40
3330;DHT22;1677;49.576;10.990;2022-09-03T08:11:09;18.90;74.70
3330;DHT22;1677;49.576;10.990;2022-09-03T08:16:05;18.60;76.20
3330;DHT22;1677;49.576;10.990;2022-09-03T08:18:32;18.50;76.80
3330;DHT22;1677;49.576;10.990;2022-09-03T08:21:03;18.50;76.80
3330;DHT22;1677;49.576;10.990;2022-09-03T08:23:28;18.50;76.80
3330;DHT22;1677;49.576;10.990;2022-09-03T08:26:00;18.50;77.00
3330;DHT22;1677;49.576;10.990;2022-09-03T08:28:26;18.40;76.90
3330;DHT22;1677;49.576;10.990;2022-09-03T08:30:52;18.40;77.70
3330;DHT22;1677;49.576;10.990;2022-09-03T08:33:17;18.40;77.70
3330;DHT22;1677;49.576;10.990;2022-09-03T08:36:09;18.40;78.30
3330;DHT22;1677;49.576;10.990;2022-09-03T08:38:37;18.40;78.10
3330;DHT22;1677;49.576;10.990;2022-09-03T08:41:33;18.40;78.30
3330;DHT22;1677;49.576;10.990;2022-09-03T08:52:59;20.20;74.80
3330;DHT22;1677;49.576;10.990;2022-09-03T08:56:01;20.50;72.90
3330;DHT22;1677;49.576;10.990;2022-09-03T08:58:31;20.50;71.30
3330;DHT22;1677;49.576;10.990;2022-09-03T09:06:53;20.40;70.10
3330;DHT22;1677;49.576;10.990;2022-09-03T09:09:48;20.10;70.80
3330;DHT22;1677;49.576;10.990;2022-09-03T09:18:22;19.80;73.10
3330;DHT22;1677;49.576;10.990;2022-09-03T09:21:14;19.80;73.30
3330;DHT22;1677;49.576;10.990;2022-09-03T09:23:47;19.80;73.30
3330;DHT22;1677;49.576;10.990;2022-09-03T09:26:16;19.90;73.70
3330;DHT22;1677;49.576;10.990;2022-09-03T09:28:45;19.80;73.80
3330;DHT22;1677;49.576;10.990;2022-09-03T09:31:14;19.80;73.70
3330;DHT22;1677;49.576;10.990;2022-09-03T09:33:43;19.90;74.30
3330;DHT22;1677;49.576;10.990;2022-09-03T09:36:12;19.90;73.50
3330;DHT22;1677;49.576;10.990;2022-09-03T09:38:41;19.90;74.30
3330;DHT22;1677;49.576;10.990;2022-09-03T09:41:17;20.20;73.40
3330;DHT22;1677;49.576;10.990;2022-09-03T09:43:59;20.60;72.20
3330;DHT22;1677;49.576;10.990;2022-09-03T09:46:38;21.10;71.20
3330;DHT22;1677;49.576;10.990;2022-09-03T09:52:00;21.70;67.90
3330;DHT22;1677;49.576;10.990;2022-09-03T09:54:26;22.00;66.40
3330;DHT22;1677;49.576;10.990;2022-09-03T09:57:06;22.00;66.00
3330;DHT22;1677;49.576;10.990;2022-09-03T09:59:34;21.90;65.90
3330;DHT22;1677;49.576;10.990;2022-09-03T10:02:29;23.40;63.70
3330;DHT22;1677;49.576;10.990;2022-09-03T10:05:00;25.20;55.70
3330;DHT22;1677;49.576;10.990;2022-09-03T10:07:27;26.90;50.80
3330;DHT22;1677;49.576;10.990;2022-09-03T10:10:00;28.50;46.30
3330;DHT22;1677;49.576;10.990;2022-09-03T10:12:41;30.60;41.40
3330;DHT22;1677;49.576;10.990;2022-09-03T10:22:18;31.90;34.80
3330;DHT22;1677;49.576;10.990;2022-09-03T10:24:37;33.50;30.70
3330;DHT22;1677;49.576;10.990;2022-09-03T10:27:09;35.00;29.20
3330;DHT22;1677;49.576;10.990;2022-09-03T10:29:38;35.80;27.70
3330;DHT22;1677;49.576;10.990;2022-09-03T10:34:58;36.80;26.40
3330;DHT22;1677;49.576;10.990;2022-09-03T10:40:35;36.90;25.10
3330;DHT22;1677;49.576;10.990;2022-09-03T10:51:24;33.40;27.90
3330;DHT22;1677;49.576;10.990;2022-09-03T10:54:18;33.20;29.40
3330;DHT22;1677;49.576;10.990;2022-09-03T11:00:06;31.40;31.70
3330;DHT22;1677;49.576;10.990;2022-09-03T11:05:42;28.20;37.40
3330;DHT22;1677;49.576;10.990;2022-09-03T11:10:49;30.10;35.30
3330;DHT22;1677;49.576;10.990;2022-09-03T11:13:21;30.60;33.70
3330;DHT22;1677;49.576;10.990;2022-09-03T11:16:02;30.40;34.00
3330;DHT22;1677;49.576;10.990;2022-09-03T11:18:34;29.90;35.40
3330;DHT22;1677;49.576;10.990;2022-09-03T11:21:06;28.40;36.60
3330;DHT22;1677;49.576;10.990;2022-09-03T11:23:39;28.00;39.80
3330;DHT22;1677;49.576;10.990;2022-09-03T11:26:09;28.60;40.10
3330;DHT22;1677;49.576;10.990;2022-09-03T11:29:03;29.60;37.70
3330;DHT22;1677;49.576;10.990;2022-09-03T11:31:44;29.40;38.30
3330;DHT22;1677;49.576;10.990;2022-09-03T11:36:51;28.50;39.30
3330;DHT22;1677;49.576;10.990;2022-09-03T11:42:02;31.50;35.80
3330;DHT22;1677;49.576;10.990;2022-09-03T11:47:16;31.50;35.20
3330;DHT22;1677;49.576;10.990;2022-09-03T11:49:46;31.50;35.20
3330;DHT22;1677;49.576;10.990;2022-09-03T11:52:27;31.20;35.90
3330;DHT22;1677;49.576;10.990;2022-09-03T11:54:54;32.60;34.50
3330;DHT22;1677;49.576;10.990;2022-09-03T11:59:52;33.20;32.60
3330;DHT22;1677;49.576;10.990;2022-09-03T12:02:31;32.80;32.40
3330;DHT22;1677;49.576;10.990;2022-09-03T12:08:03;31.50;36.80
3330;DHT22;1677;49.576;10.990;2022-09-03T12:13:35;31.30;36.60
3330;DHT22;1677;49.576;10.990;2022-09-03T12:16:12;31.30;36.60
3330;DHT22;1677;49.576;10.990;2022-09-03T12:18:42;31.40;37.20
3330;DHT22;1677;49.576;10.990;2022-09-03T12:21:10;31.10;37.10
3330;DHT22;1677;49.576;10.990;2022-09-03T12:26:08;30.90;38.30
3330;DHT22;1677;49.576;10.990;2022-09-03T12:28:40;29.70;39.20
3330;DHT22;1677;49.576;10.990;2022-09-03T12:31:18;29.30;40.80
3330;DHT22;1677;49.576;10.990;2022-09-03T12:33:53;29.30;41.70
3330;DHT22;1677;49.576;10.990;2022-09-03T12:36:21;29.30;40.90
3330;DHT22;1677;49.576;10.990;2022-09-03T12:38:47;29.60;41.80
3330;DHT22;1677;49.576;10.990;2022-09-03T12:41:26;29.70;41.00
3330;DHT22;1677;49.576;10.990;2022-09-03T12:43:55;29.80;41.10
3330;DHT22;1677;49.576;10.990;2022-09-03T12:46:30;29.30;41.60
3330;DHT22;1677;49.576;10.990;2022-09-03T12:49:01;28.90;42.40
3330;DHT22;1677;49.576;10.990;2022-09-03T12:51:38;28.40;44.00
3330;DHT22;1677;49.576;10.990;2022-09-03T12:54:10;28.10;45.40
3330;DHT22;1677;49.576;10.990;2022-09-03T12:56:43;27.70;45.50
3330;DHT22;1677;49.576;10.990;2022-09-03T12:59:12;27.30;46.70
3330;DHT22;1677;49.576;10.990;2022-09-03T13:01:52;27.10;47.30
3330;DHT22;1677;49.576;10.990;2022-09-03T13:04:24;26.60;48.70
3330;DHT22;1677;49.576;10.990;2022-09-03T13:09:30;26.30;49.60
3330;DHT22;1677;49.576;10.990;2022-09-03T13:11:57;26.40;49.80
3330;DHT22;1677;49.576;10.990;2022-09-03T13:14:44;26.10;50.60
3330;DHT22;1677;49.576;10.990;2022-09-03T13:17:20;26.50;50.50
3330;DHT22;1677;49.576;10.990;2022-09-03T13:29:06;26.30;50.20
3330;DHT22;1677;49.576;10.990;2022-09-03T13:31:51;26.10;50.90
3330;DHT22;1677;49.576;10.990;2022-09-03T13:36:55;25.30;53.00
3330;DHT22;1677;49.576;10.990;2022-09-03T13:39:27;25.10;53.60
3330;DHT22;1677;49.576;10.990;2022-09-03T13:42:02;24.80;54.70
3330;DHT22;1677;49.576;10.990;2022-09-03T13:44:44;24.60;55.00
3330;DHT22;1677;49.576;10.990;2022-09-03T13:47:45;24.40;55.90
3330;DHT22;1677;49.576;10.990;2022-09-03T13:50:41;24.40;56.70
3330;DHT22;1677;49.576;10.990;2022-09-03T13:56:13;24.40;56.80
3330;DHT22;1677;49.576;10.990;2022-09-03T13:58:56;24.60;56.90
3330;DHT22;1677;49.576;10.990;2022-09-03T14:01:32;24.90;56.80
3330;DHT22;1677;49.576;10.990;2022-09-03T14:04:02;25.50;55.90
3330;DHT22;1677;49.576;10.990;2022-09-03T14:10:03;25.50;55.00
3330;DHT22;1677;49.576;10.990;2022-09-03T14:12:50;25.80;55.00
3330;DHT22;1677;49.576;10.990;2022-09-03T14:15:23;26.10;55.10
3330;DHT22;1677;49.576;10.990;2022-09-03T14:20:32;26.50;53.10
3330;DHT22;1677;49.576;10.990;2022-09-03T14:23:09;26.30;52.50
3330;DHT22;1677;49.576;10.990;2022-09-03T14:25:54;26.60;52.70
3330;DHT22;1677;49.576;10.990;2022-09-03T14:28:30;26.50;52.80
3330;DHT22;1677;49.576;10.990;2022-09-03T14:40:15;24.70;58.70
3330;DHT22;1677;49.576;10.990;2022-09-03T14:48:16;24.20;61.30
3330;DHT22;1677;49.576;10.990;2022-09-03T14:53:49;24.00;61.90
3330;DHT22;1677;49.576;10.990;2022-09-03T15:05:20;25.30;59.00
3330;DHT22;1677;49.576;10.990;2022-09-03T15:08:01;25.20;59.10
3330;DHT22;1677;49.576;10.990;2022-09-03T15:10:41;25.10;59.20
3330;DHT22;1677;49.576;10.990;2022-09-03T15:13:15;24.60;61.00
3330;DHT22;1677;49.576;10.990;2022-09-03T15:20:53;23.90;65.10
3330;DHT22;1677;49.576;10.990;2022-09-03T15:23:39;23.50;67.60
3330;DHT22;1677;49.576;10.990;2022-09-03T15:34:00;23.00;72.80
3330;DHT22;1677;49.576;10.990;2022-09-03T15:36:40;23.00;74.30
3330;DHT22;1677;49.576;10.990;2022-09-03T15:39:11;23.00;73.70
3330;DHT22;1677;49.576;10.990;2022-09-03T15:41:45;22.80;75.30
3330;DHT22;1677;49.576;10.990;2022-09-03T15:44:15;23.10;75.20
3330;DHT22;1677;49.576;10.990;2022-09-03T15:52:29;24.00;71.50
3330;DHT22;1677;49.576;10.990;2022-09-03T15:57:37;24.50;70.40
3330;DHT22;1677;49.576;10.990;2022-09-03T16:00:12;24.50;69.40
3330;DHT22;1677;49.576;10.990;2022-09-03T16:03:06;24.70;68.90
3330;DHT22;1677;49.576;10.990;2022-09-03T16:05:46;24.60;69.10
3330;DHT22;1677;49.576;10.990;2022-09-03T16:08:21;24.30;70.20
3330;DHT22;1677;49.576;10.990;2022-09-03T16:11:04;23.80;71.70
3330;DHT22;1677;49.576;10.990;2022-09-03T16:16:37;23.00;76.70
3330;DHT22;1677;49.576;10.990;2022-09-03T16:21:46;22.20;84.20
3330;DHT22;1677;49.576;10.990;2022-09-03T16:24:43;21.70;87.60
3330;DHT22;1677;49.576;10.990;2022-09-03T16:27:21;21.30;91.20
3330;DHT22;1677;49.576;10.990;2022-09-03T16:30:10;21.00;95.90
3330;DHT22;1677;49.576;10.990;2022-09-03T16:32:52;20.90;98.10
3330;DHT22;1677;49.576;10.990;2022-09-03T16:41:11;21.00;99.90
3330;DHT22;1677;49.576;10.990;2022-09-03T16:44:11;20.70;99.90
3330;DHT22;1677;49.576;10.990;2022-09-03T16:55:35;20.70;99.90
3330;DHT22;1677;49.576;10.990;2022-09-03T17:09:12;19.20;99.90
3330;DHT22;1677;49.576;10.990;2022-09-03T17:14:48;19.00;99.90
3330;DHT22;1677;49.576;10.990;2022-09-03T17:25:59;18.70;99.90
3330;DHT22;1677;49.576;10.990;2022-09-03T17:36:36;18.90;99.90
3330;DHT22;1677;49.576;10.990;2022-09-03T17:42:03;19.60;99.90
3330;DHT22;1677;49.576;10.990;2022-09-03T17:44:52;20.00;99.90
3330;DHT22;1677;49.576;10.990;2022-09-03T17:49:55;19.80;99.90
3330;DHT22;1677;49.576;10.990;2022-09-03T17:52:49;19.50;99.90
3330;DHT22;1677;49.576;10.990;2022-09-03T17:58:40;18.90;99.90
3330;DHT22;1677;49.576;10.990;2022-09-03T18:03:48;18.40;99.90
3330;DHT22;1677;49.576;10.990;2022-09-03T18:06:28;18.40;99.90
3330;DHT22;1677;49.576;10.990;2022-09-03T18:09:05;18.50;99.90
3330;DHT22;1677;49.576;10.990;2022-09-03T18:17:16;18.20;99.90
3330;DHT22;1677;49.576;10.990;2022-09-03T18:19:51;18.10;99.90
3330;DHT22;1677;49.576;10.990;2022-09-03T18:22:51;18.10;99.90
3330;DHT22;1677;49.576;10.990;2022-09-03T18:25:38;18.30;99.90
3330;DHT22;1677;49.576;10.990;2022-09-03T18:28:36;18.90;99.90
3330;DHT22;1677;49.576;10.990;2022-09-03T18:31:22;19.40;99.90
3330;DHT22;1677;49.576;10.990;2022-09-03T18:34:07;19.80;99.90
3330;DHT22;1677;49.576;10.990;2022-09-03T18:36:52;20.00;99.90
3330;DHT22;1677;49.576;10.990;2022-09-03T18:39:40;20.40;99.90
3330;DHT22;1677;49.576;10.990;2022-09-03T18:42:40;20.10;99.90
3330;DHT22;1677;49.576;10.990;2022-09-03T18:45:58;19.60;99.90
3330;DHT22;1677;49.576;10.990;2022-09-03T18:48:53;19.20;99.90
3330;DHT22;1677;49.576;10.990;2022-09-03T18:55:07;18.70;99.90
3330;DHT22;1677;49.576;10.990;2022-09-03T19:04:12;18.30;99.90
3330;DHT22;1677;49.576;10.990;2022-09-03T19:07:07;18.10;99.90
3330;DHT22;1677;49.576;10.990;2022-09-03T19:10:14;18.10;99.90
3330;DHT22;1677;49.576;10.990;2022-09-03T19:19:30;18.70;99.90
3330;DHT22;1677;49.576;10.990;2022-09-03T19:22:43;19.40;99.90
3330;DHT22;1677;49.576;10.990;2022-09-03T19:25:28;19.50;99.90
3330;DHT22;1677;49.576;10.990;2022-09-03T19:28:24;19.50;99.90
3330;DHT22;1677;49.576;10.990;2022-09-03T19:31:40;19.50;99.90
3330;DHT22;1677;49.576;10.990;2022-09-03T19:40:20;18.80;99.90
3330;DHT22;1677;49.576;10.990;2022-09-03T19:43:48;18.70;99.90
3330;DHT22;1677;49.576;10.990;2022-09-03T19:49:46;18.20;99.90
3330;DHT22;1677;49.576;10.990;2022-09-03T19:55:39;17.60;99.90
3330;DHT22;1677;49.576;10.990;2022-09-03T19:58:28;17.50;99.90
3330;DHT22;1677;49.576;10.990;2022-09-03T20:01:13;17.40;99.90
3330;DHT22;1677;49.576;10.990;2022-09-03T20:04:12;17.50;99.90
3330;DHT22;1677;49.576;10.990;2022-09-03T20:06:58;17.60;99.90
3330;DHT22;1677;49.576;10.990;2022-09-03T20:09:43;18.20;99.90
3330;DHT22;1677;49.576;10.990;2022-09-03T20:12:34;18.50;99.90
3330;DHT22;1677;49.576;10.990;2022-09-03T20:15:04;18.90;99.90
3330;DHT22;1677;49.576;10.990;2022-09-03T20:18:00;19.10;99.90
3330;DHT22;1677;49.576;10.990;2022-09-03T20:20:46;19.40;99.90
3330;DHT22;1677;49.576;10.990;2022-09-03T20:26:00;19.60;99.90
3330;DHT22;1677;49.576;10.990;2022-09-03T20:28:53;19.30;99.90
3330;DHT22;1677;49.576;10.990;2022-09-03T20:31:34;18.80;99.90
3330;DHT22;1677;49.576;10.990;2022-09-03T20:40:04;18.10;99.90
3330;DHT22;1677;49.576;10.990;2022-09-03T20:48:35;17.90;99.90
3330;DHT22;1677;49.576;10.990;2022-09-03T20:51:10;18.00;99.90
3330;DHT22;1677;49.576;10.990;2022-09-03T20:59:25;17.80;99.90
3330;DHT22;1677;49.576;10.990;2022-09-03T21:02:17;17.90;99.90
3330;DHT22;1677;49.576;10.990;2022-09-03T21:13:12;18.70;99.90
3330;DHT22;1677;49.576;10.990;2022-09-03T21:16:08;18.80;99.90
3330;DHT22;1677;49.576;10.990;2022-09-03T21:24:43;19.30;99.90
3330;DHT22;1677;49.576;10.990;2022-09-03T21:27:18;19.00;99.90
3330;DHT22;1677;49.576;10.990;2022-09-03T21:30:02;18.60;99.90
3330;DHT22;1677;49.576;10.990;2022-09-03T21:35:29;17.90;99.90
3330;DHT22;1677;49.576;10.990;2022-09-03T21:38:03;17.70;99.90
3330;DHT22;1677;49.576;10.990;2022-09-03T21:40:31;17.50;99.90
3330;DHT22;1677;49.576;10.990;2022-09-03T21:43:30;17.30;99.90
3330;DHT22;1677;49.576;10.990;2022-09-03T21:48:50;17.10;99.90
3330;DHT22;1677;49.576;10.990;2022-09-03T21:51:30;17.10;99.90
3330;DHT22;1677;49.576;10.990;2022-09-03T21:54:04;17.20;99.90
3330;DHT22;1677;49.576;10.990;2022-09-03T22:02:20;17.00;99.90
3330;DHT22;1677;49.576;10.990;2022-09-03T22:04:46;17.50;99.90
3330;DHT22;1677;49.576;10.990;2022-09-03T22:07:27;18.10;99.90
3330;DHT22;1677;49.576;10.990;2022-09-03T22:15:00;18.30;99.90